createdAt,value
2017-08-19T07:27:38.656Z,11.25
2017-08-19T07:29:55.719Z,174.37
2017-08-19T07:30:54.756Z,174.37
2017-08-19T07:31:54.727Z,174.37
2017-08-19T07:32:55.276Z,174.37
2017-08-19T07:33:54.817Z,174.37
2017-08-19T07:34:56.227Z,151.87
2017-08-19T07:35:55.239Z,286.87
2017-08-19T07:36:55.242Z,286.87
2017-08-19T07:37:54.815Z,174.37
2017-08-19T07:38:54.831Z,174.37
2017-08-19T07:39:55.343Z,174.37
2017-08-19T07:40:55.235Z,174.37
2017-08-19T07:41:54.989Z,174.37
2017-08-19T07:42:55.277Z,174.37
2017-08-19T07:43:54.862Z,174.37
2017-08-19T07:44:54.922Z,174.37
2017-08-19T07:45:54.873Z,174.37
2017-08-19T07:46:55.249Z,174.37
2017-08-19T07:47:54.901Z,174.37
2017-08-19T07:48:55.439Z,180.00
2017-08-19T07:49:55.363Z,180.00
2017-08-19T07:50:54.939Z,180.00
2017-08-19T07:51:54.809Z,180.00
2017-08-19T07:52:54.801Z,180.00
2017-08-19T07:53:54.931Z,185.62
2017-08-19T07:54:54.882Z,185.62
2017-08-19T07:55:54.838Z,185.62
2017-08-19T07:56:54.917Z,185.62
2017-08-19T07:57:55.270Z,196.87
2017-08-19T07:58:55.265Z,208.12
2017-08-19T07:59:54.858Z,208.12
2017-08-19T08:00:54.867Z,213.75
2017-08-19T08:01:54.807Z,213.75
2017-08-19T08:02:54.738Z,208.12
2017-08-19T08:03:54.896Z,196.87
2017-08-19T08:04:55.277Z,191.25
2017-08-19T08:05:56.274Z,168.75
2017-08-19T08:06:54.768Z,185.62
2017-08-19T08:07:54.869Z,185.62
2017-08-19T08:08:55.780Z,185.62
2017-08-19T08:09:54.795Z,185.62
2017-08-19T08:10:55.404Z,191.25
2017-08-19T08:11:54.931Z,191.25
2017-08-19T08:12:55.354Z,191.25
2017-08-19T08:13:55.439Z,191.25
2017-08-19T08:14:54.802Z,174.37
2017-08-19T08:15:54.785Z,196.87
2017-08-19T08:16:54.773Z,208.12
2017-08-19T08:17:54.817Z,230.62
2017-08-19T08:18:55.816Z,196.87
2017-08-19T08:19:54.803Z,208.12
2017-08-19T08:20:54.776Z,191.25
2017-08-19T08:21:55.311Z,191.25
2017-08-19T08:22:54.756Z,236.25
2017-08-19T08:23:54.818Z,236.25
2017-08-19T08:24:54.760Z,230.62
2017-08-19T08:25:54.701Z,236.25
2017-08-19T08:26:54.864Z,191.25
2017-08-19T08:27:54.842Z,241.87
2017-08-19T08:28:54.772Z,247.50
2017-08-19T08:29:55.316Z,213.75
2017-08-19T08:30:55.331Z,202.50
2017-08-19T08:31:54.799Z,275.62
2017-08-19T08:32:54.908Z,264.37
2017-08-19T08:33:55.317Z,264.37
2017-08-19T08:34:54.858Z,264.37
2017-08-19T08:35:54.810Z,196.87
2017-08-19T08:36:54.837Z,247.50
2017-08-19T08:37:54.827Z,185.62
2017-08-19T08:38:55.326Z,202.50
2017-08-19T08:39:54.843Z,264.37
2017-08-19T08:40:55.333Z,275.62
2017-08-19T08:41:55.331Z,253.12
2017-08-19T08:42:54.784Z,264.37
2017-08-19T08:43:54.769Z,213.75
2017-08-19T08:44:54.827Z,270.00
2017-08-19T08:45:55.341Z,253.12
2017-08-19T08:46:54.759Z,202.50
2017-08-19T08:47:56.343Z,292.50
2017-08-19T08:48:54.833Z,275.62
2017-08-19T08:49:55.344Z,320.62
2017-08-19T08:50:54.758Z,303.75
2017-08-19T08:51:54.766Z,315.00
2017-08-19T08:52:54.833Z,213.75
2017-08-19T08:53:54.744Z,286.87
2017-08-19T08:54:54.865Z,208.12
2017-08-19T08:55:54.760Z,191.25
2017-08-19T08:56:55.859Z,258.75
2017-08-19T08:57:54.796Z,270.00
2017-08-19T08:58:55.488Z,219.37
2017-08-19T08:59:55.361Z,315.00
2017-08-19T09:00:54.742Z,208.12
2017-08-19T09:01:54.818Z,213.75
2017-08-19T09:02:54.931Z,281.25
2017-08-19T09:03:55.425Z,303.75
2017-08-19T09:04:54.718Z,275.62
2017-08-19T09:05:54.799Z,202.50
2017-08-19T09:06:55.370Z,281.25
2017-08-19T09:07:55.061Z,286.87
2017-08-19T09:08:55.475Z,247.50
2017-08-19T09:09:55.538Z,275.62
2017-08-19T09:10:55.470Z,196.87
2017-08-19T09:11:54.816Z,270.00
2017-08-19T09:12:55.893Z,298.12
2017-08-19T09:13:54.766Z,270.00
2017-08-19T09:14:54.786Z,264.37
2017-08-19T09:15:54.820Z,270.00
2017-08-19T09:16:54.768Z,292.50
2017-08-19T09:17:54.748Z,281.25
2017-08-19T09:18:54.831Z,196.87
2017-08-19T09:19:54.776Z,213.75
2017-08-19T09:20:55.603Z,225.00
2017-08-19T09:21:54.748Z,309.37
2017-08-19T09:22:54.825Z,219.37
2017-08-19T09:23:54.727Z,202.50
2017-08-19T09:24:54.707Z,298.12
2017-08-19T09:25:54.750Z,264.37
2017-08-19T09:26:54.790Z,219.37
2017-08-19T09:27:54.794Z,326.25
2017-08-19T09:28:54.808Z,331.87
2017-08-19T09:29:54.764Z,241.87
2017-08-19T09:30:54.804Z,230.62
2017-08-19T09:31:55.411Z,393.75
2017-08-19T09:32:55.433Z,365.62
2017-08-19T09:33:55.415Z,219.37
2017-08-19T09:34:55.427Z,258.75
2017-08-19T09:35:54.809Z,298.12
2017-08-19T09:36:55.483Z,315.00
2017-08-19T09:37:55.547Z,315.00
2017-08-19T09:38:55.421Z,292.50
2017-08-19T09:39:54.847Z,286.87
2017-08-19T09:40:54.817Z,309.37
2017-08-19T09:41:54.766Z,241.87
2017-08-19T09:42:54.720Z,331.87
2017-08-19T09:43:54.846Z,365.62
2017-08-19T09:44:55.772Z,309.37
2017-08-19T09:45:54.715Z,421.87
2017-08-19T09:46:55.616Z,506.25
2017-08-19T09:47:54.823Z,472.50
2017-08-19T09:48:55.462Z,343.12
2017-08-19T09:49:54.756Z,343.12
2017-08-19T09:50:54.773Z,382.50
2017-08-19T09:51:55.465Z,483.75
2017-08-19T09:52:54.691Z,438.75
2017-08-19T09:53:55.533Z,360.00
2017-08-19T09:54:55.640Z,298.12
2017-08-19T09:55:55.557Z,393.75
2017-08-19T09:56:54.791Z,416.25
2017-08-19T09:57:54.724Z,466.87
2017-08-19T09:58:55.455Z,551.25
2017-08-19T09:59:54.755Z,562.50
2017-08-19T10:00:54.750Z,528.75
2017-08-19T10:01:54.720Z,421.87
2017-08-19T10:02:55.572Z,421.87
2017-08-19T10:03:55.464Z,489.37
2017-08-19T10:04:55.481Z,517.50
2017-08-19T10:05:54.706Z,641.25
2017-08-19T10:06:55.470Z,590.62
2017-08-19T10:07:55.479Z,596.25
2017-08-19T10:08:54.796Z,511.87
2017-08-19T10:09:55.481Z,568.12
2017-08-19T10:10:55.476Z,691.87
2017-08-19T10:11:54.702Z,669.37
2017-08-19T10:12:54.803Z,646.87
2017-08-19T10:13:54.782Z,618.75
2017-08-19T10:14:54.891Z,472.50
2017-08-19T10:15:55.625Z,506.25
2017-08-19T10:16:54.714Z,545.62
2017-08-19T10:17:54.779Z,528.75
2017-08-19T10:18:55.489Z,590.62
2017-08-19T10:19:54.819Z,596.25
2017-08-19T10:20:55.515Z,528.75
2017-08-19T10:21:54.725Z,528.75
2017-08-19T10:22:55.675Z,472.50
2017-08-19T10:23:55.530Z,444.37
2017-08-19T10:24:55.505Z,551.25
2017-08-19T10:25:54.785Z,658.12
2017-08-19T10:26:54.784Z,652.50
2017-08-19T10:27:54.718Z,601.87
2017-08-19T10:28:55.505Z,562.50
2017-08-19T10:29:55.625Z,607.50
2017-08-19T10:30:56.718Z,826.87
2017-08-19T10:31:54.722Z,821.25
2017-08-19T10:32:54.725Z,945.00
2017-08-19T10:33:54.759Z,928.12
2017-08-19T10:34:54.742Z,939.37
2017-08-19T10:35:55.522Z,787.50
2017-08-19T10:36:54.698Z,725.62
2017-08-19T10:37:54.783Z,843.75
2017-08-19T10:38:54.774Z,883.12
2017-08-19T10:39:54.823Z,860.62
2017-08-19T10:40:56.537Z,736.87
2017-08-19T10:41:55.529Z,770.62
2017-08-19T10:42:54.660Z,776.25
2017-08-19T10:43:54.799Z,815.62
2017-08-19T10:44:54.892Z,826.87
2017-08-19T10:45:56.190Z,804.37
2017-08-19T10:46:54.676Z,821.25
2017-08-19T10:47:54.724Z,843.75
2017-08-19T10:48:55.075Z,860.62
2017-08-19T10:49:54.781Z,911.25
2017-08-19T10:50:54.753Z,855.00
2017-08-19T10:51:54.702Z,877.50
2017-08-19T10:52:55.564Z,871.87
2017-08-19T10:53:54.733Z,804.37
2017-08-19T10:54:54.773Z,770.62
2017-08-19T10:55:55.555Z,821.25
2017-08-19T10:56:55.561Z,855.00
2017-08-19T10:57:54.762Z,894.37
2017-08-19T10:58:54.653Z,922.50
2017-08-19T10:59:54.668Z,765.00
2017-08-19T11:00:54.689Z,736.87
2017-08-19T11:01:54.716Z,618.75
2017-08-19T11:02:54.706Z,607.50
2017-08-19T11:03:55.569Z,708.75
2017-08-19T11:04:54.756Z,781.87
2017-08-19T11:05:54.710Z,793.12
2017-08-19T11:06:54.743Z,821.25
2017-08-19T11:07:55.573Z,883.12
2017-08-19T11:08:54.711Z,945.00
2017-08-19T11:09:54.705Z,883.12
2017-08-19T11:10:55.595Z,843.75
2017-08-19T11:11:54.750Z,838.12
2017-08-19T11:12:54.757Z,781.87
2017-08-19T11:13:54.780Z,736.87
2017-08-19T11:14:55.585Z,753.75
2017-08-19T11:15:55.587Z,832.50
2017-08-19T11:16:54.781Z,804.37
2017-08-19T11:17:54.712Z,776.25
2017-08-19T11:18:55.093Z,714.37
2017-08-19T11:19:55.605Z,596.25
2017-08-19T11:20:54.696Z,523.12
2017-08-19T11:21:54.852Z,517.50
2017-08-19T11:22:54.704Z,568.12
2017-08-19T11:23:54.687Z,618.75
2017-08-19T11:24:56.102Z,753.75
2017-08-19T11:25:54.713Z,855.00
2017-08-19T11:26:55.783Z,945.00
2017-08-19T11:27:54.691Z,1175.62
2017-08-19T11:28:54.697Z,1243.12
2017-08-19T11:29:54.674Z,1141.87
2017-08-19T11:30:54.674Z,1282.50
2017-08-19T11:31:56.215Z,1800.00
2017-08-19T11:32:54.736Z,1198.12
2017-08-19T11:33:54.724Z,4291.87
2017-08-19T11:34:54.755Z,4393.12
2017-08-19T11:35:56.124Z,1743.75
2017-08-19T11:36:54.943Z,1057.50
2017-08-19T11:37:56.125Z,1113.75
2017-08-19T11:38:54.680Z,2002.50
2017-08-19T11:39:54.716Z,1040.62
2017-08-19T11:40:54.745Z,995.62
2017-08-19T11:41:55.633Z,1063.12
2017-08-19T11:42:55.633Z,1237.50
2017-08-19T11:43:55.262Z,1203.75
2017-08-19T11:44:55.139Z,826.87
2017-08-19T11:45:55.203Z,815.62
2017-08-19T11:46:55.642Z,849.37
2017-08-19T11:47:55.146Z,2806.87
2017-08-19T11:48:54.698Z,2936.25
2017-08-19T11:49:56.150Z,1670.62
2017-08-19T11:50:54.790Z,3037.50
2017-08-19T11:51:54.866Z,4297.50
2017-08-19T11:52:54.768Z,1794.37
2017-08-19T11:53:54.802Z,1479.37
2017-08-19T11:54:55.238Z,4173.75
2017-08-19T11:55:54.830Z,3813.75
2017-08-19T11:56:54.781Z,4044.37
2017-08-19T11:57:55.673Z,3976.87
2017-08-19T11:58:54.759Z,3920.62
2017-08-19T11:59:54.818Z,3763.12
2017-08-19T12:00:54.730Z,2182.50
2017-08-19T12:01:54.737Z,990.00
2017-08-19T12:02:56.187Z,2092.50
2017-08-19T12:03:54.687Z,2621.25
2017-08-19T12:04:54.749Z,2514.37
2017-08-19T12:05:55.434Z,1901.25
2017-08-19T12:06:54.865Z,1158.75
2017-08-19T12:07:54.735Z,810.00
2017-08-19T12:08:56.197Z,888.75
2017-08-19T12:09:55.405Z,826.87
2017-08-19T12:10:56.187Z,2227.50
2017-08-19T12:11:55.408Z,2880.00
2017-08-19T12:12:55.435Z,815.62
2017-08-19T12:13:55.717Z,871.87
2017-08-19T12:14:55.250Z,725.62
2017-08-19T12:15:55.385Z,3251.25
2017-08-19T12:16:55.056Z,3301.87
2017-08-19T12:17:55.219Z,2666.25
2017-08-19T12:18:54.709Z,1698.75
2017-08-19T12:19:54.678Z,1563.75
2017-08-19T12:20:54.761Z,3459.37
2017-08-19T12:21:55.275Z,1614.37
2017-08-19T12:22:54.737Z,1760.62
2017-08-19T12:23:56.715Z,2626.87
2017-08-19T12:24:56.350Z,1479.37
2017-08-19T12:25:54.737Z,1068.75
2017-08-19T12:26:55.225Z,950.62
2017-08-19T12:27:55.413Z,916.87
2017-08-19T12:28:54.716Z,911.25
2017-08-19T12:29:54.723Z,950.62
2017-08-19T12:30:54.687Z,1006.87
2017-08-19T12:31:54.801Z,1231.87
2017-08-19T12:32:55.263Z,1029.37
2017-08-19T12:33:55.423Z,1181.25
2017-08-19T12:34:54.679Z,1226.25
2017-08-19T12:35:54.736Z,928.12
2017-08-19T12:36:54.740Z,2227.50
2017-08-19T12:37:55.237Z,3375.00
2017-08-19T12:38:55.738Z,3532.50
2017-08-19T12:39:55.024Z,3600.00
2017-08-19T12:40:54.660Z,3723.75
2017-08-19T12:41:55.244Z,4078.12
2017-08-19T12:42:58.245Z,4933.12
2017-08-19T12:43:55.419Z,5146.87
2017-08-19T12:44:54.794Z,5214.37
2017-08-19T12:45:55.293Z,4078.12
2017-08-19T12:46:55.391Z,1440.00
2017-08-19T12:47:55.473Z,2891.25
2017-08-19T12:48:54.740Z,3301.87
2017-08-19T12:49:55.578Z,787.50
2017-08-19T12:50:55.492Z,607.50
2017-08-19T12:51:55.400Z,686.25
2017-08-19T12:52:56.762Z,765.00
2017-08-19T12:53:56.762Z,5433.75
2017-08-19T12:54:55.776Z,810.00
2017-08-19T12:55:54.680Z,4736.25
2017-08-19T12:56:55.500Z,1080.00
2017-08-19T12:57:56.315Z,1282.50
2017-08-19T12:58:54.740Z,1096.87
2017-08-19T12:59:57.929Z,770.62
2017-08-19T13:00:54.763Z,714.37
2017-08-19T13:01:54.658Z,731.25
2017-08-19T13:02:57.278Z,1361.25
2017-08-19T13:03:55.539Z,866.25
2017-08-19T13:04:55.289Z,900.00
2017-08-19T13:05:59.298Z,1091.25
2017-08-19T13:06:54.770Z,995.62
2017-08-19T13:07:55.315Z,945.00
2017-08-19T13:08:55.321Z,905.62
2017-08-19T13:09:54.746Z,894.37
2017-08-19T13:10:55.460Z,1451.25
2017-08-19T13:11:54.931Z,984.37
2017-08-19T13:12:56.469Z,939.37
2017-08-19T13:13:55.668Z,877.50
2017-08-19T13:14:55.820Z,787.50
2017-08-19T13:15:58.805Z,736.87
2017-08-19T13:16:54.776Z,731.25
2017-08-19T13:17:55.814Z,765.00
2017-08-19T13:18:57.307Z,843.75
2017-08-19T13:19:55.345Z,1051.87
2017-08-19T13:20:55.085Z,1890.00
2017-08-19T13:21:55.499Z,2986.87
2017-08-19T13:22:55.528Z,3127.50
2017-08-19T13:23:55.627Z,3172.50
2017-08-19T13:24:55.332Z,3060.00
2017-08-19T13:25:55.048Z,2430.00
2017-08-19T13:26:56.823Z,3127.50
2017-08-19T13:27:55.957Z,2008.12
2017-08-19T13:28:55.624Z,2188.12
2017-08-19T13:29:55.543Z,3538.12
2017-08-19T13:30:56.327Z,736.87
2017-08-19T13:31:55.668Z,905.62
2017-08-19T13:32:55.462Z,1805.62
2017-08-19T13:33:55.506Z,1541.25
2017-08-19T13:34:54.703Z,1158.75
2017-08-19T13:35:54.714Z,1018.12
2017-08-19T13:36:54.759Z,961.87
2017-08-19T13:37:55.370Z,866.25
2017-08-19T13:38:54.724Z,765.00
2017-08-19T13:39:54.826Z,691.87
2017-08-19T13:40:54.771Z,736.87
2017-08-19T13:41:55.349Z,821.25
2017-08-19T13:42:55.350Z,911.25
2017-08-19T13:43:54.717Z,933.75
2017-08-19T13:44:55.386Z,922.50
2017-08-19T13:45:56.381Z,933.75
2017-08-19T13:46:55.514Z,984.37
2017-08-19T13:47:55.432Z,1023.75
2017-08-19T13:48:56.383Z,1147.50
2017-08-19T13:49:55.868Z,1181.25
2017-08-19T13:50:54.631Z,3386.25
2017-08-19T13:51:55.513Z,1181.25
2017-08-19T13:52:55.389Z,1141.87
2017-08-19T13:53:55.375Z,838.12
2017-08-19T13:54:54.753Z,798.75
2017-08-19T13:55:55.386Z,821.25
2017-08-19T13:56:55.613Z,984.37
2017-08-19T13:57:55.000Z,1018.12
2017-08-19T13:58:54.822Z,984.37
2017-08-19T13:59:55.577Z,905.62
2017-08-19T14:00:54.647Z,1620.00
2017-08-19T14:01:54.702Z,1018.12
2017-08-19T14:02:54.616Z,916.87
2017-08-19T14:03:54.627Z,860.62
2017-08-19T14:04:55.394Z,815.62
2017-08-19T14:05:54.692Z,900.00
2017-08-19T14:06:54.729Z,973.12
2017-08-19T14:07:56.394Z,1805.62
2017-08-19T14:08:54.631Z,2126.25
2017-08-19T14:09:54.708Z,1681.87
2017-08-19T14:10:55.529Z,1136.25
2017-08-19T14:11:54.732Z,866.25
2017-08-19T14:12:54.601Z,1220.62
2017-08-19T14:13:54.628Z,1209.37
2017-08-19T14:14:55.417Z,1215.00
2017-08-19T14:15:54.767Z,950.62
2017-08-19T14:16:54.775Z,630.00
2017-08-19T14:17:54.649Z,703.12
2017-08-19T14:18:54.742Z,1816.87
2017-08-19T14:19:54.709Z,2587.50
2017-08-19T14:20:55.421Z,2581.87
2017-08-19T14:21:54.703Z,2418.75
2017-08-19T14:22:54.727Z,2379.37
2017-08-19T14:23:54.642Z,2345.62
2017-08-19T14:24:55.604Z,596.25
2017-08-19T14:25:55.578Z,1856.25
2017-08-19T14:26:54.702Z,2345.62
2017-08-19T14:27:54.722Z,832.50
2017-08-19T14:28:55.460Z,652.50
2017-08-19T14:29:55.545Z,511.87
2017-08-19T14:30:55.615Z,466.87
2017-08-19T14:31:54.633Z,1411.87
2017-08-19T14:32:55.659Z,2295.00
2017-08-19T14:33:55.524Z,843.75
2017-08-19T14:34:54.775Z,1338.75
2017-08-19T14:35:54.630Z,1794.37
2017-08-19T14:36:56.476Z,2143.12
2017-08-19T14:37:54.861Z,1395.00
2017-08-19T14:38:55.715Z,2143.12
2017-08-19T14:39:54.605Z,804.37
2017-08-19T14:40:54.656Z,2058.75
2017-08-19T14:41:55.455Z,2070.00
2017-08-19T14:42:55.472Z,1974.37
2017-08-19T14:43:55.461Z,2047.50
2017-08-19T14:44:56.964Z,1125.00
2017-08-19T14:45:54.672Z,1974.37
2017-08-19T14:46:55.472Z,1935.00
2017-08-19T14:47:54.795Z,1867.50
2017-08-19T14:48:54.651Z,1929.37
2017-08-19T14:49:54.673Z,1963.12
2017-08-19T14:50:55.494Z,916.87
2017-08-19T14:51:54.605Z,1215.00
2017-08-19T14:52:54.728Z,1906.87
2017-08-19T14:53:55.478Z,1822.50
2017-08-19T14:54:54.641Z,1873.12
2017-08-19T14:55:54.802Z,1873.12
2017-08-19T14:56:55.177Z,1822.50
2017-08-19T14:57:56.486Z,1861.87
2017-08-19T14:58:54.613Z,1873.12
2017-08-19T14:59:54.669Z,1856.25
2017-08-19T15:00:54.680Z,1845.00
2017-08-19T15:01:55.492Z,1873.12
2017-08-19T15:02:55.546Z,1861.87
2017-08-19T15:03:55.524Z,1788.75
2017-08-19T15:04:55.536Z,1777.50
2017-08-19T15:05:55.507Z,1749.37
2017-08-19T15:06:54.687Z,405.00
2017-08-19T15:07:54.669Z,984.37
2017-08-19T15:08:56.004Z,1794.37
2017-08-19T15:09:55.529Z,1704.37
2017-08-19T15:10:54.720Z,1726.87
2017-08-19T15:11:55.183Z,1749.37
2017-08-19T15:12:54.661Z,1732.50
2017-08-19T15:13:54.666Z,1715.62
2017-08-19T15:14:55.027Z,1715.62
2017-08-19T15:15:55.055Z,551.25
2017-08-19T15:16:55.018Z,1704.37
2017-08-19T15:17:54.593Z,1670.62
2017-08-19T15:18:55.521Z,1676.25
2017-08-19T15:19:55.033Z,1665.00
2017-08-19T15:20:55.030Z,1665.00
2017-08-19T15:21:54.585Z,1659.37
2017-08-19T15:22:54.702Z,416.25
2017-08-19T15:23:54.859Z,427.50
2017-08-19T15:24:54.749Z,1755.00
2017-08-19T15:25:54.644Z,1726.87
2017-08-19T15:26:55.051Z,787.50
2017-08-19T15:27:54.635Z,826.87
2017-08-19T15:28:54.868Z,731.25
2017-08-19T15:29:55.068Z,646.87
2017-08-19T15:30:54.686Z,838.12
2017-08-19T15:31:54.662Z,646.87
2017-08-19T15:32:54.629Z,607.50
2017-08-19T15:33:54.702Z,517.50
2017-08-19T15:34:54.650Z,720.00
2017-08-19T15:35:54.633Z,596.25
2017-08-19T15:36:54.733Z,967.50
2017-08-19T15:37:55.064Z,618.75
2017-08-19T15:38:55.649Z,596.25
2017-08-19T15:39:54.615Z,478.12
2017-08-19T15:40:54.617Z,483.75
2017-08-19T15:41:56.126Z,652.50
2017-08-19T15:42:55.179Z,1063.12
2017-08-19T15:43:55.066Z,1833.75
2017-08-19T15:44:54.593Z,1867.50
2017-08-19T15:45:55.072Z,1822.50
2017-08-19T15:46:55.572Z,1445.62
2017-08-19T15:47:54.631Z,1715.62
2017-08-19T15:48:55.616Z,1546.87
2017-08-19T15:49:54.607Z,551.25
2017-08-19T15:50:54.748Z,568.12
2017-08-19T15:51:54.606Z,382.50
2017-08-19T15:52:55.088Z,399.37
2017-08-19T15:53:55.089Z,618.75
2017-08-19T15:54:54.672Z,421.87
2017-08-19T15:55:54.625Z,399.37
2017-08-19T15:56:55.589Z,393.75
2017-08-19T15:57:54.713Z,393.75
2017-08-19T15:58:54.611Z,382.50
2017-08-19T15:59:54.603Z,410.62
2017-08-19T16:00:54.637Z,444.37
2017-08-19T16:01:54.576Z,455.62
2017-08-19T16:02:55.210Z,433.12
2017-08-19T16:03:56.119Z,405.00
2017-08-19T16:04:54.617Z,388.12
2017-08-19T16:05:54.676Z,382.50
2017-08-19T16:06:56.119Z,371.25
2017-08-19T16:07:55.348Z,348.75
2017-08-19T16:08:54.725Z,309.37
2017-08-19T16:09:54.606Z,270.00
2017-08-19T16:10:54.660Z,230.62
2017-08-19T16:11:54.715Z,196.87
2017-08-19T16:12:55.120Z,180.00
2017-08-19T16:13:55.713Z,174.37
2017-08-19T16:14:54.715Z,174.37
2017-08-19T16:15:54.579Z,180.00
2017-08-19T16:16:55.330Z,174.37
2017-08-19T16:17:57.129Z,185.62
2017-08-19T16:18:55.631Z,202.50
2017-08-19T16:19:55.325Z,202.50
2017-08-19T16:20:55.278Z,185.62
2017-08-19T16:21:55.139Z,163.12
2017-08-19T16:22:54.569Z,146.25
2017-08-19T16:23:54.666Z,146.25
2017-08-19T16:24:54.843Z,163.12
2017-08-19T16:25:55.139Z,191.25
2017-08-19T16:26:55.161Z,241.87
2017-08-19T16:27:54.569Z,601.87
2017-08-19T16:28:54.572Z,461.25
2017-08-19T16:29:55.166Z,376.87
2017-08-19T16:30:54.713Z,410.62
2017-08-19T16:31:54.550Z,438.75
2017-08-19T16:32:56.176Z,466.87
2017-08-19T16:33:54.614Z,489.37
2017-08-19T16:34:54.636Z,511.87
2017-08-19T16:35:54.617Z,523.12
2017-08-19T16:36:55.264Z,511.87
2017-08-19T16:37:54.683Z,483.75
2017-08-19T16:38:55.184Z,466.87
2017-08-19T16:39:55.164Z,450.00
2017-08-19T16:40:54.594Z,433.12
2017-08-19T16:41:54.571Z,410.62
2017-08-19T16:42:54.618Z,393.75
2017-08-19T16:43:54.604Z,365.62
2017-08-19T16:44:54.918Z,326.25
2017-08-19T16:45:55.175Z,298.12
2017-08-19T16:46:54.630Z,270.00
2017-08-19T16:47:55.202Z,253.12
2017-08-19T16:48:55.321Z,247.50
2017-08-19T16:49:55.349Z,241.87
2017-08-19T16:50:54.630Z,241.87
2017-08-19T16:51:54.658Z,241.87
2017-08-19T16:52:55.338Z,258.75
2017-08-19T16:53:55.189Z,275.62
2017-08-19T16:54:55.488Z,320.62
2017-08-19T16:55:54.995Z,348.75
2017-08-19T16:56:55.701Z,371.25
2017-08-19T16:57:55.195Z,382.50
2017-08-19T16:58:56.214Z,393.75
2017-08-19T16:59:54.604Z,410.62
2017-08-19T17:00:54.591Z,421.87
2017-08-19T17:01:54.580Z,427.50
2017-08-19T17:02:54.564Z,427.50
2017-08-19T17:03:54.578Z,416.25
2017-08-19T17:04:55.334Z,405.00
2017-08-19T17:05:55.219Z,388.12
2017-08-19T17:06:55.219Z,371.25
2017-08-19T17:07:54.579Z,360.00
2017-08-19T17:08:55.398Z,348.75
2017-08-19T17:09:54.666Z,326.25
2017-08-19T17:10:54.699Z,309.37
2017-08-19T17:11:54.550Z,281.25
2017-08-19T17:12:54.584Z,258.75
2017-08-19T17:13:55.221Z,241.87
2017-08-19T17:14:54.650Z,236.25
2017-08-19T17:15:54.645Z,225.00
2017-08-19T17:16:55.229Z,225.00
2017-08-19T17:17:54.624Z,219.37
2017-08-19T17:18:54.608Z,202.50
2017-08-19T17:19:54.622Z,185.62
2017-08-19T17:20:54.585Z,174.37
2017-08-19T17:21:55.273Z,163.12
2017-08-19T17:22:54.633Z,151.87
2017-08-19T17:23:54.611Z,140.62
2017-08-19T17:24:54.633Z,129.37
2017-08-19T17:25:54.587Z,118.12
2017-08-19T17:26:54.619Z,118.12
2017-08-19T17:27:54.581Z,112.50
2017-08-19T17:28:55.411Z,106.87
2017-08-19T17:29:54.590Z,95.62
2017-08-19T17:30:54.581Z,90.00
2017-08-19T17:31:54.649Z,90.00
2017-08-19T17:32:54.544Z,95.62
2017-08-19T17:33:55.259Z,101.25
2017-08-19T17:34:54.615Z,95.62
2017-08-19T17:35:55.263Z,84.37
2017-08-19T17:36:54.640Z,78.75
2017-08-19T17:37:55.271Z,78.75
2017-08-19T17:38:54.584Z,73.12
2017-08-19T17:39:54.531Z,73.12
2017-08-19T17:40:54.544Z,67.50
2017-08-19T17:41:54.526Z,67.50
2017-08-19T17:42:54.723Z,67.50
2017-08-19T17:43:54.541Z,61.87
2017-08-19T17:44:54.509Z,61.87
2017-08-19T17:45:54.560Z,61.87
2017-08-19T17:46:55.291Z,67.50
2017-08-19T17:47:55.298Z,73.12
2017-08-19T17:48:54.757Z,73.12
2017-08-19T17:49:56.687Z,73.12
2017-08-19T17:50:54.683Z,73.12
2017-08-19T17:51:55.885Z,78.75
2017-08-19T17:52:56.286Z,78.75
2017-08-19T17:53:55.293Z,78.75
2017-08-19T17:54:54.653Z,78.75
2017-08-19T17:55:55.792Z,78.75
2017-08-19T17:56:54.689Z,73.12
2017-08-19T17:57:54.991Z,67.50
2017-08-19T17:58:54.561Z,67.50
2017-08-19T17:59:56.802Z,61.87
2017-08-19T18:00:54.553Z,61.87
2017-08-19T18:01:54.635Z,56.25
2017-08-19T18:02:58.327Z,56.25
2017-08-19T18:03:55.903Z,56.25
2017-08-19T18:04:54.567Z,56.25
2017-08-19T18:05:54.509Z,56.25
2017-08-19T18:06:54.582Z,56.25
2017-08-19T18:07:55.283Z,50.62
2017-08-19T18:08:55.317Z,50.62
2017-08-19T18:09:56.331Z,45.00
2017-08-19T18:10:54.552Z,45.00
2017-08-19T18:11:55.542Z,45.00
2017-08-19T18:12:56.106Z,39.37
2017-08-19T18:13:57.375Z,39.37
2017-08-19T18:14:56.351Z,39.37
2017-08-19T18:15:54.759Z,39.37
2017-08-19T18:16:58.347Z,33.75
2017-08-19T18:17:56.349Z,33.75
2017-08-19T18:18:54.895Z,33.75
2017-08-19T18:19:54.800Z,33.75
2017-08-19T18:20:55.514Z,28.12
2017-08-19T18:21:55.945Z,28.12
2017-08-19T18:22:55.883Z,22.50
2017-08-19T18:23:59.338Z,22.50
2017-08-19T18:24:55.729Z,22.50
2017-08-19T18:25:56.872Z,16.87
2017-08-19T18:26:54.748Z,16.87
2017-08-19T18:27:58.356Z,16.87
2017-08-19T18:28:56.350Z,16.87
2017-08-19T18:29:56.359Z,11.25
2017-08-19T18:30:56.847Z,11.25
2017-08-19T18:31:55.387Z,11.25
2017-08-19T18:32:55.355Z,11.25
2017-08-19T18:34:00.366Z,11.25
2017-08-19T18:34:54.498Z,5.62
2017-08-19T18:35:56.894Z,5.62
2017-08-19T18:36:56.551Z,5.62
2017-08-19T18:37:57.239Z,5.62
2017-08-19T18:38:56.379Z,5.62
2017-08-19T18:39:54.598Z,5.62
2017-08-19T18:40:55.413Z,0.00
2017-08-19T18:41:54.544Z,0.00
2017-08-19T18:42:55.877Z,0.00
2017-08-19T18:43:54.656Z,0.00
2017-08-19T18:44:57.370Z,0.00
2017-08-19T18:45:55.370Z,0.00
2017-08-19T18:46:54.593Z,0.00
2017-08-19T18:47:55.373Z,0.00
2017-08-19T18:48:56.374Z,0.00
2017-08-19T18:49:55.761Z,0.00
2017-08-19T18:50:54.594Z,0.00
2017-08-19T18:51:54.542Z,0.00
2017-08-19T18:52:55.427Z,0.00
2017-08-19T18:53:54.595Z,0.00
2017-08-19T18:54:54.672Z,0.00
2017-08-19T18:55:54.594Z,0.00
2017-08-19T18:56:54.513Z,0.00
2017-08-19T18:57:54.551Z,0.00
2017-08-19T18:58:54.548Z,0.00
2017-08-19T18:59:55.415Z,0.00
2017-08-19T19:00:55.663Z,0.00
2017-08-19T19:01:54.513Z,0.00
2017-08-19T19:02:55.425Z,0.00
2017-08-19T19:03:54.718Z,0.00
2017-08-19T19:04:54.675Z,0.00
2017-08-19T19:05:54.567Z,0.00
2017-08-19T19:06:54.510Z,0.00
2017-08-19T19:07:54.580Z,0.00
2017-08-19T19:08:54.938Z,0.00
2017-08-19T19:09:55.433Z,0.00
2017-08-19T19:10:55.162Z,0.00
2017-08-19T19:11:55.416Z,0.00
2017-08-19T19:12:54.553Z,0.00
2017-08-19T19:13:54.916Z,0.00
2017-08-19T19:14:54.594Z,0.00
2017-08-19T19:15:54.607Z,0.00
2017-08-19T19:16:54.923Z,0.00
2017-08-19T19:17:54.998Z,0.00
2017-08-19T19:18:54.561Z,0.00
2017-08-19T19:19:54.570Z,0.00
2017-08-19T19:20:54.594Z,0.00
2017-08-19T19:21:54.573Z,0.00
2017-08-19T19:22:54.957Z,0.00
2017-08-19T19:23:54.484Z,0.00
2017-08-19T19:24:55.430Z,0.00
2017-08-19T19:25:54.507Z,0.00
2017-08-19T19:26:55.938Z,0.00
2017-08-19T19:27:54.935Z,0.00
2017-08-19T19:28:54.514Z,0.00
2017-08-19T19:29:54.598Z,0.00
2017-08-19T19:30:54.530Z,0.00
2017-08-19T19:31:55.246Z,0.00
2017-08-19T19:32:55.946Z,0.00
2017-08-19T19:33:54.547Z,0.00
2017-08-19T19:34:54.512Z,0.00
2017-08-19T19:35:55.472Z,0.00
2017-08-19T19:36:54.513Z,0.00
2017-08-19T19:37:54.611Z,0.00
2017-08-19T19:38:54.571Z,0.00
2017-08-19T19:39:54.953Z,0.00
2017-08-19T19:40:54.684Z,0.00
2017-08-19T19:41:54.643Z,0.00
2017-08-19T19:42:54.541Z,0.00
2017-08-19T19:43:54.537Z,0.00
2017-08-19T19:44:55.108Z,0.00
2017-08-19T19:45:54.568Z,0.00
2017-08-19T19:46:54.967Z,0.00
2017-08-19T19:47:54.497Z,0.00
2017-08-19T19:48:54.969Z,0.00
2017-08-19T19:49:54.467Z,0.00
2017-08-19T19:50:54.979Z,0.00
2017-08-19T19:51:54.613Z,0.00
2017-08-19T19:52:54.530Z,0.00
2017-08-19T19:53:54.589Z,0.00
2017-08-19T19:54:55.092Z,0.00
2017-08-19T19:55:55.066Z,0.00
2017-08-19T19:56:54.615Z,0.00
2017-08-19T19:57:54.510Z,0.00
2017-08-19T19:58:54.522Z,0.00